Latest Weather Observations for Orange Airport

IDN60801

Issued at 11:33 am EST Thursday 29 September 2016 (issued every 30 minutes, with the page automatically refreshed every 10 minutes)

About weather observations | Map of weather stations | Latest weather observations for NSW | Other Formats
Station Details ID: 063303 Name: ORANGE AIRPORT AWS Lat: -33.38 Lon: 149.13 Height: 944.65 m
Data from the previous 72 hours. | See also: Recent months at Orange Airport
Date/Time
EST
Temp
°C
App
Temp
°C
Dew
Point
°C
Rel
Hum
%
Delta-T
°C
Wind Press
QNH
hPa
Press
MSL
hPa
Rain since
9am
mm
Dir  Spd
km/h
Gust
km/h
Spd
kts
Gust
kts
29/11:00am 9.0 4.2 4.8 75 2.0 WNW 19 28 10 15 998.8 997.8 12.4
29/10:57am 9.0 4.1 5.2 77 1.8 WNW 20 28 11 15 998.8 997.8 12.4
29/10:30am 9.0 2.5 6.3 83 1.3 WNW 30 43 16 23 998.8 997.8 12.4
29/10:11am 9.2 1.4 8.1 93 0.6 NW 39 57 21 31 999.2 998.3 12.4
29/10:05am 9.6 3.6 8.5 93 0.6 NW 30 48 16 26 999.3 998.4 12.4
29/10:00am 9.7 3.7 8.6 93 0.6 NW 30 44 16 24 998.6 997.7 12.2
29/09:30am 10.3 4.1 9.2 93 0.6 NNW 32 43 17 23 999.1 998.2 4.2
29/09:16am 10.2 3.9 9.1 93 0.6 N 32 44 17 24 999.2 998.3 1.4
29/09:08am 10.1 4.2 9.0 93 0.6 N 30 39 16 21 999.2 998.3 0.4
29/09:00am 10.0 4.1 8.9 93 0.6 N 30 46 16 25 999.1 998.2 16.0
29/08:56am 10.0 4.4 8.9 93 0.6 N 28 46 15 25 999.1 998.2 15.8
29/08:55am 10.0 4.4 8.9 93 0.6 N 28 35 15 19 999.1 998.2 15.8
29/08:30am 9.4 4.1 8.3 93 0.6 N 26 33 14 18 999.2 998.3 14.4
29/08:09am 8.8 3.7 7.7 93 0.6 N 24 30 13 16 999.5 998.6 13.8
29/08:00am 8.7 3.6 7.6 93 0.6 N 24 32 13 17 999.9 999.0 13.6
29/07:50am 8.6 3.5 7.5 93 0.5 N 24 33 13 18 1000.1 999.2 12.6
29/07:30am 8.4 3.2 7.3 93 0.5 N 24 32 13 17 1000.0 999.1 10.4
29/07:00am 8.3 2.0 7.2 93 0.5 N 30 41 16 22 1000.3 999.4 7.4
29/06:30am 8.3 1.6 7.2 93 0.5 N 32 41 17 22 1000.3 999.4 5.0
29/06:27am 8.3 1.6 7.2 93 0.5 NNE 32 41 17 22 1000.2 999.3 4.8
29/06:00am 8.2 1.4 7.1 93 0.5 NNE 32 43 17 23 1000.1 999.2 4.0
29/05:30am 8.2 1.3 7.1 93 0.5 N 33 43 18 23 1000.7 999.9 2.6
29/05:00am 8.4 1.7 7.2 92 0.6 NNE 32 43 17 23 1000.5 999.6 2.0
29/04:30am 8.8 2.0 7.1 89 0.8 NNE 32 44 17 24 1001.3 1000.4 1.2
29/04:00am 9.1 2.9 6.0 81 1.5 NNE 28 37 15 20 1001.9 1001.1 0.2
29/03:30am 8.8 4.2 5.4 79 1.6 N 19 26 10 14 1002.6 1001.8 0.0
29/03:00am 9.4 4.7 5.0 74 2.1 NNE 19 26 10 14 1002.9 1002.1 0.0
29/02:30am 9.6 4.2 4.4 70 2.4 NNE 22 33 12 18 1003.5 1002.7 0.0
29/02:00am 8.7 4.2 4.1 73 2.1 NNE 17 22 9 12 1004.1 1003.3 0.0
29/01:30am 8.1 4.0 4.1 76 1.8 NE 15 19 8 10 1005.2 1004.4 0.0
29/01:00am 8.5 4.0 4.3 75 2.0 NE 17 24 9 13 1006.0 1005.2 0.0
29/12:30am 8.7 5.0 4.5 75 2.0 NNE 13 19 7 10 1007.1 1006.3 0.0
29/12:00am 8.0 3.5 4.4 78 1.7 NNE 17 20 9 11 1007.7 1007.0 0.0
 
Date/Time
EST
Temp
°C
App
Temp
°C
Dew
Point
°C
Rel
Hum
%
Delta-T
°C
Wind Press
QNH
hPa
Press
MSL
hPa
Rain since
9am
mm
Dir  Spd
km/h
Gust
km/h
Spd
kts
Gust
kts
28/11:30pm 8.1 3.7 4.7 79 1.6 N 17 22 9 12 1008.3 1007.6 0.0
28/11:00pm 7.8 3.2 3.7 75 1.9 NNE 17 20 9 11 1008.4 1007.7 0.0
28/10:30pm 8.4 3.3 4.0 74 2.0 NNE 20 24 11 13 1008.6 1007.9 0.0
28/10:00pm 8.3 3.2 4.1 75 1.9 NE 20 24 11 13 1008.8 1008.1 0.0
28/09:30pm 9.2 4.1 4.2 71 2.3 NNE 20 26 11 14 1009.4 1008.7 0.0
28/09:00pm 8.8 3.7 4.2 73 2.1 NNE 20 24 11 13 1009.4 1008.7 0.0
28/08:30pm 8.5 4.0 4.3 75 2.0 NNE 17 20 9 11 1009.5 1008.8 0.0
28/08:00pm 8.6 4.6 4.8 77 1.8 NNE 15 20 8 11 1009.8 1009.1 0.0
28/07:30pm 8.2 3.9 5.3 82 1.4 N 17 19 9 10 1010.1 1009.4 0.0
28/07:00pm 8.7 4.9 5.8 82 1.4 N 15 17 8 9 1009.9 1009.3 0.0
28/06:30pm 9.8 5.2 5.8 76 1.9 N 19 22 10 12 1009.8 1009.1 0.0
28/06:00pm 10.3 6.7 6.6 78 1.8 N 15 19 8 10 1009.7 1009.0 0.0
28/05:30pm 11.9 8.7 7.0 72 2.5 N 13 17 7 9 1009.5 1008.8 0.0
28/05:00pm 13.2 9.2 6.5 64 3.4 NW 17 20 9 11 1009.5 1008.8 0.0
28/04:30pm 14.0 10.1 7.1 63 3.5 NNW 17 24 9 13 1009.5 1008.8 0.0
28/04:00pm 14.9 11.0 7.0 59 4.1 N 17 22 9 12 1009.6 1008.9 0.0
28/03:30pm 15.1 10.9 3.9 47 5.4 NNE 15 24 8 13 1009.8 1009.1 0.0
28/03:00pm 14.8 11.2 5.1 52 4.8 NE 13 19 7 10 1010.4 1009.7 0.0
28/02:30pm 14.6 11.0 3.1 46 5.5 NE 11 19 6 10 1010.8 1010.2 0.0
28/02:00pm 14.5 11.3 5.0 53 4.7 ENE 11 17 6 9 1011.6 1010.9 0.0
28/01:30pm 14.0 10.9 3.8 50 4.9 ENE 9 17 5 9 1012.1 1011.5 0.0
28/01:00pm 14.0 11.0 4.0 51 4.8 NNE 9 13 5 7 1012.8 1012.2 0.0
28/12:30pm 13.2 11.3 5.1 58 4.0 SE 4 11 2 6 1013.3 1012.7 0.0
28/12:00pm 12.8 10.2 4.3 56 4.1 E 7 13 4 7 1013.6 1013.0 0.0
28/11:30am 11.7 9.1 3.0 55 4.0 SSE 6 15 3 8 1014.0 1013.4 0.0
28/11:00am 11.2 9.1 3.7 60 3.5 E 4 9 2 5 1014.4 1013.8 0.0
28/10:30am 10.6 8.2 4.5 66 2.9 WSW 6 11 3 6 1014.8 1014.2 0.0
28/10:00am 9.7 7.4 4.7 71 2.4 SSW 6 11 3 6 1014.9 1014.3 0.0
28/09:30am 8.9 6.0 4.9 76 1.9 SSE 9 13 5 7 1015.0 1014.4 0.0
28/09:00am 7.9 4.5 4.1 77 1.7 SE 11 17 6 9 1015.1 1014.5 0.2
28/08:30am 7.3 3.2 4.6 83 1.2 SSE 15 19 8 10 1015.2 1014.6 0.2
28/08:00am 6.9 3.1 5.7 92 0.6 SSE 15 20 8 11 1014.9 1014.3 0.2
28/07:30am 5.8 1.8 4.8 93 0.5 SSE 15 19 8 10 1014.8 1014.2 0.2
28/07:00am 4.3 2.9 3.3 93 0.4 CALM 0 0 0 0 1014.9 1014.3 0.2
28/06:30am 2.3 -0.6 1.3 93 0.4 SSW 6 7 3 4 1014.7 1014.1 0.0
28/06:29am 2.2 -0.7 1.2 93 0.4 SSW 6 7 3 4 1014.7 1014.1 0.0
28/06:00am 0.9 -2.8 -0.1 93 0.4 S 9 9 5 5 1014.4 1013.8 0.0
28/05:56am 1.1 -2.6 0.1 93 0.4 S 9 9 5 5 1014.3 1013.7 0.0
28/05:30am 1.7 -1.5 0.7 93 0.4 S 7 9 4 5 1014.1 1013.5 0.0
28/05:00am 1.5 -2.1 0.5 93 0.4 S 9 11 5 6 1013.7 1013.1 0.0
28/04:30am 1.9 -2.0 0.9 93 0.4 SSE 11 13 6 7 1013.7 1013.1 0.0
28/04:00am 3.2 -1.3 2.2 93 0.4 S 15 19 8 10 1013.7 1013.1 0.0
28/03:30am 2.6 -2.0 1.6 93 0.4 S 15 17 8 9 1013.8 1013.2 0.0
28/03:00am 3.2 -0.5 2.2 93 0.4 SSW 11 13 6 7 1014.0 1013.4 0.0
28/02:30am 3.3 -0.8 2.3 93 0.4 SW 13 17 7 9 1014.2 1013.6 0.0
28/02:00am 2.7 -1.1 1.7 93 0.4 SW 11 13 6 7 1014.2 1013.6 0.0
28/01:30am 2.9 -1.6 1.9 93 0.4 WSW 15 17 8 9 1014.3 1013.7 0.0
28/01:00am 3.8 -1.0 2.8 93 0.4 SW 17 22 9 12 1014.2 1013.6 0.0
28/12:30am 3.6 -1.2 2.6 93 0.4 SW 17 20 9 11 1014.3 1013.7 0.0
28/12:00am 3.2 -1.3 2.2 93 0.4 SW 15 17 8 9 1014.4 1013.8 0.0
 
Date/Time
EST
Temp
°C
App
Temp
°C
Dew
Point
°C
Rel
Hum
%
Delta-T
°C
Wind Press
QNH
hPa
Press
MSL
hPa
Rain since
9am
mm
Dir  Spd
km/h
Gust
km/h
Spd
kts
Gust
kts
27/11:30pm 3.8 -0.2 2.8 93 0.4 SSW 13 17 7 9 1014.5 1014.0 0.0
27/11:00pm 3.6 -0.4 2.6 93 0.4 SW 13 15 7 8 1014.4 1013.8 0.0
27/10:30pm 3.7 -0.3 2.7 93 0.4 SSW 13 15 7 8 1014.8 1014.2 0.0
27/10:00pm 3.5 -0.2 2.5 93 0.4 SSW 11 13 6 7 1014.8 1014.2 0.0
27/09:30pm 3.4 0.1 2.2 92 0.5 SW 9 11 5 6 1014.9 1014.3 0.0
27/09:00pm 4.0 0.8 2.8 92 0.5 SW 9 13 5 7 1015.0 1014.4 0.0
27/08:30pm 3.7 0.8 2.5 92 0.5 SW 7 11 4 6 1015.0 1014.4 0.0
27/08:00pm 4.3 2.8 3.0 91 0.6 CALM 0 0 0 0 1015.0 1014.4 0.0
27/07:30pm 5.0 1.4 3.2 88 0.8 SW 11 15 6 8 1014.7 1014.1 0.0
27/07:00pm 5.7 1.1 3.5 86 1.0 WSW 17 22 9 12 1014.5 1014.0 0.0
27/06:30pm 5.7 1.0 3.2 84 1.1 WSW 17 24 9 13 1014.2 1013.6 0.0
27/06:00pm 6.6 1.3 3.0 78 1.6 WSW 20 33 11 18 1014.0 1013.4 0.0
27/05:30pm 7.4 1.0 3.1 74 1.9 WSW 26 39 14 21 1013.7 1013.1 0.0
27/05:00pm 7.5 0.3 2.8 72 2.1 WSW 30 43 16 23 1013.3 1012.7 0.0
27/04:30pm 8.7 0.9 2.7 66 2.7 WSW 33 46 18 25 1013.0 1012.4 0.0
27/04:00pm 8.7 0.8 2.5 65 2.8 WSW 33 46 18 25 1012.8 1012.2 0.0
27/03:30pm 9.5 0.5 2.4 61 3.2 WSW 39 56 21 30 1012.2 1011.6 0.0
27/03:00pm 10.1 2.5 2.9 61 3.3 WSW 32 46 17 25 1011.9 1011.3 0.0
27/02:30pm 10.0 1.0 2.6 60 3.3 W 39 54 21 29 1011.6 1010.9 0.0
27/02:15pm 10.4 2.4 3.7 63 3.1 WSW 35 54 19 29 1011.6 1010.9 0.0
27/02:00pm 10.3 1.3 2.7 59 3.5 WSW 39 54 21 29 1011.9 1011.3 0.0
27/01:30pm 10.4 1.4 2.7 59 3.5 WSW 39 52 21 28 1011.8 1011.2 0.0
27/01:00pm 10.7 2.4 4.0 63 3.2 WSW 37 48 20 26 1011.8 1011.2 0.0
27/12:30pm 10.5 2.5 4.0 64 3.0 WSW 35 50 19 27 1011.9 1011.3 0.0
27/12:27pm 10.3 1.8 3.3 62 3.2 WSW 37 56 20 30 1011.9 1011.3 0.0
27/12:00pm 10.8 1.7 1.9 54 4.0 W 39 50 21 27 1011.8 1011.2 0.0
27/11:30am 10.9 1.9 2.2 55 3.9 W 39 61 21 33 1011.9 1011.3 0.0
27/11:06am 10.7 0.8 1.8 54 4.0 W 43 61 23 33 1011.9 1011.3 0.0
27/11:00am 10.9 1.2 3.7 61 3.4 W 44 59 24 32 1011.8 1011.2 0.0
27/10:43am 11.3 3.1 4.7 64 3.2 W 37 56 20 30 1012.0 1011.4 0.0
27/10:30am 10.9 2.7 5.0 67 2.8 W 37 50 20 27 1012.1 1011.5 0.0
27/10:11am 10.4 2.3 5.4 71 2.4 W 37 59 20 32 1012.2 1011.6 0.0
27/10:00am 10.2 1.8 5.6 73 2.2 W 39 54 21 29 1012.2 1011.6 0.0
27/09:48am 10.4 2.5 6.0 74 2.2 W 37 57 20 31 1012.1 1011.5 0.0
27/09:30am 10.5 4.4 6.8 78 1.8 W 28 41 15 22 1012.4 1011.7 0.0
27/09:00am 10.1 4.1 7.2 82 1.5 WNW 28 35 15 19 1012.6 1011.9 0.4
27/08:30am 8.5 1.8 5.6 82 1.4 NW 30 39 16 21 1012.7 1012.1 0.4
27/08:00am 8.2 1.1 5.5 83 1.3 NW 32 43 17 23 1012.5 1011.8 0.4
27/07:30am 7.2 1.1 5.0 86 1.0 NW 26 39 14 21 1012.6 1011.9 0.4
27/07:00am 6.4 1.1 4.9 90 0.7 NNW 22 30 12 16 1012.7 1012.1 0.4
27/06:30am 5.7 -0.1 4.3 91 0.6 NNW 24 33 13 18 1012.4 1011.7 0.4
27/06:00am 5.0 -0.2 3.5 90 0.7 NNW 20 30 11 16 1012.5 1011.8 0.4
27/05:30am 5.6 0.4 3.4 86 1.0 NW 20 28 11 15 1012.5 1011.8 0.4
27/05:00am 5.9 0.7 3.6 85 1.0 NW 20 28 11 15 1012.6 1011.9 0.0
27/04:30am 5.6 0.3 3.1 84 1.1 NW 20 30 11 16 1012.2 1011.6 0.0
27/04:00am 4.7 0.6 2.4 85 1.0 NW 13 19 7 10 1012.5 1011.8 0.0
27/03:30am 4.6 1.2 2.1 84 1.1 NNW 9 13 5 7 1012.5 1011.8 0.0
27/03:00am 4.5 1.5 2.0 84 1.1 NNW 7 11 4 6 1012.8 1012.2 0.0
27/02:30am 3.9 -0.3 1.8 86 0.9 NNW 13 17 7 9 1012.8 1012.2 0.0
27/02:00am 3.9 0.8 1.4 84 1.0 NW 7 9 4 5 1013.3 1012.7 0.0
27/01:30am 4.5 1.2 2.7 88 0.8 NW 9 9 5 5 1013.7 1013.1 0.0
27/01:00am 2.6 -1.6 1.4 92 0.5 NW 13 15 7 8 1014.0 1013.4 0.0
27/12:30am 2.9 -0.9 1.7 92 0.5 NW 11 15 6 8 1014.2 1013.6 0.0
27/12:00am 3.2 -0.2 2.0 92 0.5 NW 9 11 5 6 1014.1 1013.5 0.0
 
Date/Time
EST
Temp
°C
App
Temp
°C
Dew
Point
°C
Rel
Hum
%
Delta-T
°C
Wind Press
QNH
hPa
Press
MSL
hPa
Rain since
9am
mm
Dir  Spd
km/h
Gust
km/h
Spd
kts
Gust
kts
26/11:30pm 2.9 -0.9 1.7 92 0.5 NW 11 13 6 7 1014.3 1013.7 0.0
26/11:00pm 3.4 0.1 2.2 92 0.5 NW 9 11 5 6 1014.4 1013.8 0.0
26/10:30pm 3.4 0.4 2.2 92 0.5 NW 7 9 4 5 1014.7 1014.1 0.0
26/10:00pm 3.4 -0.4 1.8 89 0.7 WNW 11 13 6 7 1014.8 1014.2 0.0
26/09:30pm 3.5 -0.6 2.0 90 0.6 WNW 13 13 7 7 1014.9 1014.3 0.0
26/09:00pm 3.6 -0.5 2.1 90 0.6 WNW 13 15 7 8 1014.8 1014.2 0.0
26/08:30pm 3.7 -0.4 2.4 91 0.6 WNW 13 13 7 7 1014.7 1014.1 0.0
26/08:00pm 4.1 0.1 2.6 90 0.6 WNW 13 15 7 8 1014.5 1014.0 0.0
26/07:30pm 4.3 0.3 2.7 89 0.7 WNW 13 15 7 8 1014.4 1013.8 0.0
26/07:00pm 5.0 1.7 2.5 84 1.1 WNW 9 13 5 7 1014.3 1013.7 0.0
26/06:30pm 5.9 2.2 2.5 79 1.5 W 11 15 6 8 1014.1 1013.5 0.0
26/06:00pm 6.7 2.7 2.8 76 1.7 W 13 19 7 10 1014.0 1013.4 0.0
26/05:30pm 7.5 2.4 2.8 72 2.1 WSW 19 28 10 15 1013.7 1013.1 0.0
26/05:00pm 8.7 2.9 2.5 65 2.8 WSW 22 33 12 18 1013.3 1012.7 0.0
26/04:30pm 8.9 2.0 2.7 65 2.8 WSW 28 35 15 19 1013.0 1012.4 0.0
26/04:00pm 8.2 2.1 2.7 68 2.5 WSW 24 35 13 19 1012.8 1012.2 0.0
26/03:30pm 9.5 3.6 4.1 69 2.5 WSW 24 32 13 17 1012.8 1012.2 0.0
26/03:00pm 9.1 3.5 3.7 69 2.5 WSW 22 33 12 18 1012.8 1012.2 0.0
26/02:30pm 9.0 3.1 3.8 70 2.4 WSW 24 35 13 19 1012.9 1012.3 0.0
26/02:00pm 9.4 3.6 4.6 72 2.3 WSW 24 32 13 17 1012.9 1012.3 0.0
26/01:30pm 10.2 5.3 4.1 66 2.9 W 19 32 10 17 1013.0 1012.4 0.0
26/01:00pm 9.2 3.4 4.2 71 2.3 WSW 24 33 13 18 1013.3 1012.7 0.0
26/12:30pm 9.5 4.6 5.1 74 2.1 WSW 20 30 11 16 1013.6 1013.0 0.0
26/12:00pm 9.3 3.9 4.3 71 2.3 WSW 22 28 12 15 1013.8 1013.2 0.0

Other Formats:

Comma delimited format used in spreadsheet applications
http://www.bom.gov.au/fwo/IDN60801/IDN60801.95726.axf

JavaScript Object Notation format (JSON) in row-major order
http://www.bom.gov.au/fwo/IDN60801/IDN60801.95726.json